sensor_id;sensor_type;location;lat;lon;timestamp;P1;durP1;ratioP1;P2;durP2;ratioP2
20894;SDS011;10607;42.066;24.742;2023-06-04T00:01:02;8.45;;;6.72;;
20894;SDS011;10607;42.066;24.742;2023-06-04T00:03:27;25.25;;;6.63;;
20894;SDS011;10607;42.066;24.742;2023-06-04T00:05:52;9.65;;;6.25;;
20894;SDS011;10607;42.066;24.742;2023-06-04T00:08:17;19.65;;;6.70;;
20894;SDS011;10607;42.066;24.742;2023-06-04T00:10:43;9.40;;;6.35;;
20894;SDS011;10607;42.066;24.742;2023-06-04T00:13:08;13.95;;;5.88;;
20894;SDS011;10607;42.066;24.742;2023-06-04T00:15:33;9.63;;;6.15;;
20894;SDS011;10607;42.066;24.742;2023-06-04T00:17:59;9.45;;;5.57;;
20894;SDS011;10607;42.066;24.742;2023-06-04T00:20:24;9.13;;;5.45;;
20894;SDS011;10607;42.066;24.742;2023-06-04T00:22:49;6.93;;;5.45;;
20894;SDS011;10607;42.066;24.742;2023-06-04T00:25:15;11.25;;;5.85;;
20894;SDS011;10607;42.066;24.742;2023-06-04T00:27:40;11.95;;;5.80;;
20894;SDS011;10607;42.066;24.742;2023-06-04T00:30:06;11.85;;;5.70;;
20894;SDS011;10607;42.066;24.742;2023-06-04T00:32:31;8.43;;;5.75;;
20894;SDS011;10607;42.066;24.742;2023-06-04T00:34:56;16.95;;;5.35;;
20894;SDS011;10607;42.066;24.742;2023-06-04T00:37:27;9.48;;;6.28;;
20894;SDS011;10607;42.066;24.742;2023-06-04T00:39:52;9.57;;;4.95;;
20894;SDS011;10607;42.066;24.742;2023-06-04T00:42:17;10.80;;;5.22;;
20894;SDS011;10607;42.066;24.742;2023-06-04T00:44:43;10.60;;;6.20;;
20894;SDS011;10607;42.066;24.742;2023-06-04T00:47:13;8.18;;;5.28;;
20894;SDS011;10607;42.066;24.742;2023-06-04T00:49:39;9.13;;;5.25;;
20894;SDS011;10607;42.066;24.742;2023-06-04T00:52:05;8.02;;;5.53;;
20894;SDS011;10607;42.066;24.742;2023-06-04T00:54:30;9.27;;;6.00;;
20894;SDS011;10607;42.066;24.742;2023-06-04T00:56:57;7.38;;;5.82;;
20894;SDS011;10607;42.066;24.742;2023-06-04T00:59:23;10.25;;;5.20;;
20894;SDS011;10607;42.066;24.742;2023-06-04T01:01:49;7.45;;;5.85;;
20894;SDS011;10607;42.066;24.742;2023-06-04T01:04:18;9.05;;;5.82;;
20894;SDS011;10607;42.066;24.742;2023-06-04T01:06:47;10.48;;;5.57;;
20894;SDS011;10607;42.066;24.742;2023-06-04T01:09:14;8.13;;;5.57;;
20894;SDS011;10607;42.066;24.742;2023-06-04T01:11:40;10.25;;;5.93;;
20894;SDS011;10607;42.066;24.742;2023-06-04T01:14:06;7.30;;;5.43;;
20894;SDS011;10607;42.066;24.742;2023-06-04T01:16:39;10.98;;;5.68;;
20894;SDS011;10607;42.066;24.742;2023-06-04T01:19:17;9.02;;;5.38;;
20894;SDS011;10607;42.066;24.742;2023-06-04T01:21:46;11.15;;;5.70;;
20894;SDS011;10607;42.066;24.742;2023-06-04T01:24:14;10.63;;;5.78;;
20894;SDS011;10607;42.066;24.742;2023-06-04T01:26:40;11.90;;;5.45;;
20894;SDS011;10607;42.066;24.742;2023-06-04T01:29:05;11.13;;;5.80;;
20894;SDS011;10607;42.066;24.742;2023-06-04T01:31:30;16.80;;;5.72;;
20894;SDS011;10607;42.066;24.742;2023-06-04T01:33:58;11.68;;;5.80;;
20894;SDS011;10607;42.066;24.742;2023-06-04T01:36:23;10.43;;;6.15;;
20894;SDS011;10607;42.066;24.742;2023-06-04T01:38:49;12.70;;;6.03;;
20894;SDS011;10607;42.066;24.742;2023-06-04T01:41:14;9.32;;;5.78;;
20894;SDS011;10607;42.066;24.742;2023-06-04T01:43:39;12.45;;;6.50;;
20894;SDS011;10607;42.066;24.742;2023-06-04T01:46:05;12.25;;;6.05;;
20894;SDS011;10607;42.066;24.742;2023-06-04T01:48:30;6.97;;;5.95;;
20894;SDS011;10607;42.066;24.742;2023-06-04T01:50:57;8.63;;;5.38;;
20894;SDS011;10607;42.066;24.742;2023-06-04T01:53:22;6.65;;;5.35;;
20894;SDS011;10607;42.066;24.742;2023-06-04T01:55:47;10.43;;;6.28;;
20894;SDS011;10607;42.066;24.742;2023-06-04T01:58:14;10.18;;;6.20;;
20894;SDS011;10607;42.066;24.742;2023-06-04T02:00:42;10.65;;;5.90;;
20894;SDS011;10607;42.066;24.742;2023-06-04T02:03:08;8.85;;;5.90;;
20894;SDS011;10607;42.066;24.742;2023-06-04T02:05:33;9.27;;;5.25;;
20894;SDS011;10607;42.066;24.742;2023-06-04T02:07:58;8.48;;;5.13;;
20894;SDS011;10607;42.066;24.742;2023-06-04T02:10:26;10.32;;;6.07;;
20894;SDS011;10607;42.066;24.742;2023-06-04T02:12:59;8.65;;;5.60;;
20894;SDS011;10607;42.066;24.742;2023-06-04T02:15:25;12.40;;;5.68;;
20894;SDS011;10607;42.066;24.742;2023-06-04T02:17:50;8.45;;;5.75;;
20894;SDS011;10607;42.066;24.742;2023-06-04T02:20:16;10.85;;;5.55;;
20894;SDS011;10607;42.066;24.742;2023-06-04T02:22:42;12.88;;;5.00;;
20894;SDS011;10607;42.066;24.742;2023-06-04T02:25:08;11.57;;;6.05;;
20894;SDS011;10607;42.066;24.742;2023-06-04T02:27:36;10.02;;;5.50;;
20894;SDS011;10607;42.066;24.742;2023-06-04T02:30:05;9.23;;;5.00;;
20894;SDS011;10607;42.066;24.742;2023-06-04T02:32:31;8.07;;;5.20;;
20894;SDS011;10607;42.066;24.742;2023-06-04T02:34:56;10.77;;;5.30;;
20894;SDS011;10607;42.066;24.742;2023-06-04T02:37:21;9.13;;;5.72;;
20894;SDS011;10607;42.066;24.742;2023-06-04T02:39:47;9.25;;;6.03;;
20894;SDS011;10607;42.066;24.742;2023-06-04T02:42:13;11.38;;;6.00;;
20894;SDS011;10607;42.066;24.742;2023-06-04T02:44:38;14.13;;;6.10;;
20894;SDS011;10607;42.066;24.742;2023-06-04T02:47:03;12.30;;;6.18;;
20894;SDS011;10607;42.066;24.742;2023-06-04T02:49:29;10.70;;;6.32;;
20894;SDS011;10607;42.066;24.742;2023-06-04T02:51:54;15.10;;;6.22;;
20894;SDS011;10607;42.066;24.742;2023-06-04T02:54:19;8.10;;;5.63;;
20894;SDS011;10607;42.066;24.742;2023-06-04T02:56:44;12.48;;;6.57;;
20894;SDS011;10607;42.066;24.742;2023-06-04T02:59:10;9.68;;;6.13;;
20894;SDS011;10607;42.066;24.742;2023-06-04T03:01:35;10.43;;;6.13;;
20894;SDS011;10607;42.066;24.742;2023-06-04T03:04:01;11.13;;;6.63;;
20894;SDS011;10607;42.066;24.742;2023-06-04T03:06:29;11.85;;;5.88;;
20894;SDS011;10607;42.066;24.742;2023-06-04T03:08:56;8.52;;;6.07;;
20894;SDS011;10607;42.066;24.742;2023-06-04T03:11:21;8.30;;;6.22;;
20894;SDS011;10607;42.066;24.742;2023-06-04T03:13:47;11.07;;;6.47;;
20894;SDS011;10607;42.066;24.742;2023-06-04T03:16:12;12.55;;;6.43;;
20894;SDS011;10607;42.066;24.742;2023-06-04T03:18:42;15.02;;;6.32;;
20894;SDS011;10607;42.066;24.742;2023-06-04T03:21:07;7.88;;;5.97;;
20894;SDS011;10607;42.066;24.742;2023-06-04T03:23:34;11.98;;;6.57;;
20894;SDS011;10607;42.066;24.742;2023-06-04T03:26:02;12.77;;;6.57;;
20894;SDS011;10607;42.066;24.742;2023-06-04T03:28:28;10.85;;;6.45;;
20894;SDS011;10607;42.066;24.742;2023-06-04T03:30:53;10.82;;;6.13;;
20894;SDS011;10607;42.066;24.742;2023-06-04T03:33:18;15.43;;;6.00;;
20894;SDS011;10607;42.066;24.742;2023-06-04T03:35:44;14.25;;;6.97;;
20894;SDS011;10607;42.066;24.742;2023-06-04T03:38:10;8.98;;;5.65;;
20894;SDS011;10607;42.066;24.742;2023-06-04T03:40:35;12.20;;;6.00;;
20894;SDS011;10607;42.066;24.742;2023-06-04T03:43:01;9.32;;;6.32;;
20894;SDS011;10607;42.066;24.742;2023-06-04T03:45:29;18.27;;;6.75;;
20894;SDS011;10607;42.066;24.742;2023-06-04T03:47:54;10.43;;;6.45;;
20894;SDS011;10607;42.066;24.742;2023-06-04T03:50:19;18.35;;;6.88;;
20894;SDS011;10607;42.066;24.742;2023-06-04T03:52:44;8.02;;;5.93;;
20894;SDS011;10607;42.066;24.742;2023-06-04T03:55:10;8.43;;;6.90;;
20894;SDS011;10607;42.066;24.742;2023-06-04T03:57:36;9.45;;;6.45;;
20894;SDS011;10607;42.066;24.742;2023-06-04T04:00:03;12.07;;;5.97;;
20894;SDS011;10607;42.066;24.742;2023-06-04T04:02:29;12.27;;;6.63;;
20894;SDS011;10607;42.066;24.742;2023-06-04T04:04:54;9.10;;;6.05;;
20894;SDS011;10607;42.066;24.742;2023-06-04T04:07:22;10.02;;;5.97;;
20894;SDS011;10607;42.066;24.742;2023-06-04T04:09:47;10.10;;;5.93;;
20894;SDS011;10607;42.066;24.742;2023-06-04T04:12:13;9.80;;;5.70;;
20894;SDS011;10607;42.066;24.742;2023-06-04T04:14:38;9.85;;;5.88;;
20894;SDS011;10607;42.066;24.742;2023-06-04T04:17:03;11.93;;;6.10;;
20894;SDS011;10607;42.066;24.742;2023-06-04T04:19:29;9.07;;;6.32;;
20894;SDS011;10607;42.066;24.742;2023-06-04T04:21:54;12.23;;;6.10;;
20894;SDS011;10607;42.066;24.742;2023-06-04T04:24:26;17.77;;;6.53;;
20894;SDS011;10607;42.066;24.742;2023-06-04T04:26:53;11.48;;;6.65;;
20894;SDS011;10607;42.066;24.742;2023-06-04T04:29:19;12.65;;;6.47;;
20894;SDS011;10607;42.066;24.742;2023-06-04T04:31:48;11.85;;;6.43;;
20894;SDS011;10607;42.066;24.742;2023-06-04T04:34:14;11.75;;;5.95;;
20894;SDS011;10607;42.066;24.742;2023-06-04T04:36:40;8.32;;;5.40;;
20894;SDS011;10607;42.066;24.742;2023-06-04T04:39:05;8.27;;;6.13;;
20894;SDS011;10607;42.066;24.742;2023-06-04T04:41:31;11.38;;;6.63;;
20894;SDS011;10607;42.066;24.742;2023-06-04T04:44:02;11.90;;;6.47;;
20894;SDS011;10607;42.066;24.742;2023-06-04T04:46:28;8.20;;;6.15;;
20894;SDS011;10607;42.066;24.742;2023-06-04T04:48:53;12.77;;;7.28;;
20894;SDS011;10607;42.066;24.742;2023-06-04T04:51:18;9.52;;;6.38;;
20894;SDS011;10607;42.066;24.742;2023-06-04T04:53:43;9.88;;;6.38;;
20894;SDS011;10607;42.066;24.742;2023-06-04T04:56:09;12.02;;;6.45;;
20894;SDS011;10607;42.066;24.742;2023-06-04T04:58:34;16.75;;;6.72;;
20894;SDS011;10607;42.066;24.742;2023-06-04T05:01:00;13.35;;;6.43;;
20894;SDS011;10607;42.066;24.742;2023-06-04T05:03:25;11.45;;;6.03;;
20894;SDS011;10607;42.066;24.742;2023-06-04T05:05:50;8.20;;;6.03;;
20894;SDS011;10607;42.066;24.742;2023-06-04T05:08:15;13.60;;;6.63;;
20894;SDS011;10607;42.066;24.742;2023-06-04T05:10:41;10.05;;;6.05;;
20894;SDS011;10607;42.066;24.742;2023-06-04T05:13:06;15.95;;;7.03;;
20894;SDS011;10607;42.066;24.742;2023-06-04T05:15:31;11.73;;;6.05;;
20894;SDS011;10607;42.066;24.742;2023-06-04T05:17:57;8.95;;;6.28;;
20894;SDS011;10607;42.066;24.742;2023-06-04T05:20:25;10.13;;;6.13;;
20894;SDS011;10607;42.066;24.742;2023-06-04T05:22:51;9.07;;;6.03;;
20894;SDS011;10607;42.066;24.742;2023-06-04T05:25:17;11.30;;;6.15;;
20894;SDS011;10607;42.066;24.742;2023-06-04T05:27:42;9.20;;;6.68;;
20894;SDS011;10607;42.066;24.742;2023-06-04T05:30:08;14.98;;;6.13;;
20894;SDS011;10607;42.066;24.742;2023-06-04T05:32:33;13.98;;;6.32;;
20894;SDS011;10607;42.066;24.742;2023-06-04T05:34:59;7.85;;;6.00;;
20894;SDS011;10607;42.066;24.742;2023-06-04T05:37:24;8.90;;;6.10;;
20894;SDS011;10607;42.066;24.742;2023-06-04T05:39:52;12.80;;;7.30;;
20894;SDS011;10607;42.066;24.742;2023-06-04T05:42:17;12.27;;;6.63;;
20894;SDS011;10607;42.066;24.742;2023-06-04T05:44:42;14.18;;;6.85;;
20894;SDS011;10607;42.066;24.742;2023-06-04T05:47:08;11.80;;;6.82;;
20894;SDS011;10607;42.066;24.742;2023-06-04T05:49:33;10.43;;;6.57;;
20894;SDS011;10607;42.066;24.742;2023-06-04T05:51:59;10.75;;;6.30;;
20894;SDS011;10607;42.066;24.742;2023-06-04T05:54:24;10.50;;;7.40;;
20894;SDS011;10607;42.066;24.742;2023-06-04T05:56:49;10.35;;;7.22;;
20894;SDS011;10607;42.066;24.742;2023-06-04T05:59:14;10.30;;;7.30;;
20894;SDS011;10607;42.066;24.742;2023-06-04T06:01:40;11.68;;;6.93;;
20894;SDS011;10607;42.066;24.742;2023-06-04T06:04:05;10.48;;;6.82;;
20894;SDS011;10607;42.066;24.742;2023-06-04T06:06:30;13.85;;;6.35;;
20894;SDS011;10607;42.066;24.742;2023-06-04T06:08:56;13.60;;;6.88;;
20894;SDS011;10607;42.066;24.742;2023-06-04T06:11:21;13.45;;;6.40;;
20894;SDS011;10607;42.066;24.742;2023-06-04T06:13:46;8.30;;;6.00;;
20894;SDS011;10607;42.066;24.742;2023-06-04T06:16:12;14.27;;;6.85;;
20894;SDS011;10607;42.066;24.742;2023-06-04T06:18:37;9.18;;;7.10;;
20894;SDS011;10607;42.066;24.742;2023-06-04T06:21:02;15.02;;;7.13;;
20894;SDS011;10607;42.066;24.742;2023-06-04T06:23:28;8.65;;;6.15;;
20894;SDS011;10607;42.066;24.742;2023-06-04T06:25:53;9.57;;;6.60;;
20894;SDS011;10607;42.066;24.742;2023-06-04T06:28:18;14.60;;;7.20;;
20894;SDS011;10607;42.066;24.742;2023-06-04T06:30:44;7.53;;;6.25;;
20894;SDS011;10607;42.066;24.742;2023-06-04T06:33:09;9.45;;;7.03;;
20894;SDS011;10607;42.066;24.742;2023-06-04T06:35:34;6.85;;;6.10;;
20894;SDS011;10607;42.066;24.742;2023-06-04T06:38:00;11.18;;;6.60;;
20894;SDS011;10607;42.066;24.742;2023-06-04T06:40:25;19.40;;;7.47;;
20894;SDS011;10607;42.066;24.742;2023-06-04T06:42:50;10.85;;;6.18;;
20894;SDS011;10607;42.066;24.742;2023-06-04T06:45:17;10.15;;;6.97;;
20894;SDS011;10607;42.066;24.742;2023-06-04T06:47:42;15.90;;;7.53;;
20894;SDS011;10607;42.066;24.742;2023-06-04T06:50:07;9.13;;;6.80;;
20894;SDS011;10607;42.066;24.742;2023-06-04T06:52:33;12.75;;;7.72;;
20894;SDS011;10607;42.066;24.742;2023-06-04T06:54:58;10.38;;;7.82;;
20894;SDS011;10607;42.066;24.742;2023-06-04T06:57:23;9.52;;;7.30;;
20894;SDS011;10607;42.066;24.742;2023-06-04T06:59:49;15.57;;;7.75;;
20894;SDS011;10607;42.066;24.742;2023-06-04T07:02:16;12.48;;;7.72;;
20894;SDS011;10607;42.066;24.742;2023-06-04T07:04:42;9.80;;;6.70;;
20894;SDS011;10607;42.066;24.742;2023-06-04T07:07:07;11.93;;;7.57;;
20894;SDS011;10607;42.066;24.742;2023-06-04T07:09:33;9.65;;;7.35;;
20894;SDS011;10607;42.066;24.742;2023-06-04T07:11:58;12.15;;;7.38;;
20894;SDS011;10607;42.066;24.742;2023-06-04T07:14:24;14.15;;;7.28;;
20894;SDS011;10607;42.066;24.742;2023-06-04T07:16:49;9.93;;;7.13;;
20894;SDS011;10607;42.066;24.742;2023-06-04T07:19:15;9.23;;;7.10;;
20894;SDS011;10607;42.066;24.742;2023-06-04T07:21:40;11.27;;;7.65;;
20894;SDS011;10607;42.066;24.742;2023-06-04T07:24:05;12.93;;;7.97;;
20894;SDS011;10607;42.066;24.742;2023-06-04T07:26:31;11.77;;;7.90;;
20894;SDS011;10607;42.066;24.742;2023-06-04T07:28:57;16.80;;;7.72;;
20894;SDS011;10607;42.066;24.742;2023-06-04T07:31:22;13.85;;;7.43;;
20894;SDS011;10607;42.066;24.742;2023-06-04T07:33:47;10.65;;;7.38;;
20894;SDS011;10607;42.066;24.742;2023-06-04T07:36:13;16.35;;;6.55;;
20894;SDS011;10607;42.066;24.742;2023-06-04T07:38:38;11.48;;;7.75;;
20894;SDS011;10607;42.066;24.742;2023-06-04T07:41:04;10.55;;;6.45;;
20894;SDS011;10607;42.066;24.742;2023-06-04T07:43:29;15.65;;;8.02;;
20894;SDS011;10607;42.066;24.742;2023-06-04T07:45:55;11.63;;;7.57;;
20894;SDS011;10607;42.066;24.742;2023-06-04T07:48:20;8.82;;;5.97;;
20894;SDS011;10607;42.066;24.742;2023-06-04T07:50:45;9.98;;;5.70;;
20894;SDS011;10607;42.066;24.742;2023-06-04T07:53:11;17.42;;;6.03;;
20894;SDS011;10607;42.066;24.742;2023-06-04T07:55:36;9.13;;;5.93;;
20894;SDS011;10607;42.066;24.742;2023-06-04T07:58:01;11.30;;;5.50;;
20894;SDS011;10607;42.066;24.742;2023-06-04T08:00:26;12.32;;;6.05;;
20894;SDS011;10607;42.066;24.742;2023-06-04T08:02:52;10.73;;;5.25;;
20894;SDS011;10607;42.066;24.742;2023-06-04T08:05:17;12.25;;;6.25;;
20894;SDS011;10607;42.066;24.742;2023-06-04T08:07:42;7.78;;;6.20;;
20894;SDS011;10607;42.066;24.742;2023-06-04T08:10:08;11.38;;;5.43;;
20894;SDS011;10607;42.066;24.742;2023-06-04T08:12:34;9.50;;;6.07;;
20894;SDS011;10607;42.066;24.742;2023-06-04T08:14:59;12.45;;;5.68;;
20894;SDS011;10607;42.066;24.742;2023-06-04T08:17:24;11.18;;;6.55;;
20894;SDS011;10607;42.066;24.742;2023-06-04T08:19:50;12.07;;;5.85;;
20894;SDS011;10607;42.066;24.742;2023-06-04T08:22:15;12.27;;;5.57;;
20894;SDS011;10607;42.066;24.742;2023-06-04T08:24:40;9.68;;;5.45;;
20894;SDS011;10607;42.066;24.742;2023-06-04T08:27:06;9.85;;;5.78;;
20894;SDS011;10607;42.066;24.742;2023-06-04T08:29:33;10.02;;;5.95;;
20894;SDS011;10607;42.066;24.742;2023-06-04T08:31:59;9.60;;;5.95;;
20894;SDS011;10607;42.066;24.742;2023-06-04T08:34:25;9.65;;;5.40;;
20894;SDS011;10607;42.066;24.742;2023-06-04T08:36:50;14.23;;;6.28;;
20894;SDS011;10607;42.066;24.742;2023-06-04T08:39:15;11.95;;;5.50;;
20894;SDS011;10607;42.066;24.742;2023-06-04T08:41:46;10.90;;;6.55;;
20894;SDS011;10607;42.066;24.742;2023-06-04T08:44:13;9.90;;;5.55;;
20894;SDS011;10607;42.066;24.742;2023-06-04T08:46:41;9.45;;;6.30;;
20894;SDS011;10607;42.066;24.742;2023-06-04T08:49:07;9.68;;;5.88;;
20894;SDS011;10607;42.066;24.742;2023-06-04T08:51:34;10.35;;;5.80;;
20894;SDS011;10607;42.066;24.742;2023-06-04T08:54:02;14.13;;;6.25;;
20894;SDS011;10607;42.066;24.742;2023-06-04T08:56:28;13.27;;;6.07;;
20894;SDS011;10607;42.066;24.742;2023-06-04T08:58:58;11.00;;;6.43;;
20894;SDS011;10607;42.066;24.742;2023-06-04T09:01:26;10.55;;;6.32;;
20894;SDS011;10607;42.066;24.742;2023-06-04T09:03:51;19.23;;;7.80;;
20894;SDS011;10607;42.066;24.742;2023-06-04T09:06:17;13.07;;;5.97;;
20894;SDS011;10607;42.066;24.742;2023-06-04T09:08:43;6.95;;;4.10;;
20894;SDS011;10607;42.066;24.742;2023-06-04T09:11:09;9.02;;;4.30;;
20894;SDS011;10607;42.066;24.742;2023-06-04T09:13:35;10.02;;;4.05;;
20894;SDS011;10607;42.066;24.742;2023-06-04T09:16:01;11.88;;;5.00;;
20894;SDS011;10607;42.066;24.742;2023-06-04T09:18:27;5.57;;;3.88;;
20894;SDS011;10607;42.066;24.742;2023-06-04T09:21:05;6.15;;;4.07;;
20894;SDS011;10607;42.066;24.742;2023-06-04T09:23:31;6.60;;;3.88;;
20894;SDS011;10607;42.066;24.742;2023-06-04T09:26:08;10.82;;;4.32;;
20894;SDS011;10607;42.066;24.742;2023-06-04T09:28:34;9.75;;;3.70;;
20894;SDS011;10607;42.066;24.742;2023-06-04T09:30:59;8.38;;;4.63;;
20894;SDS011;10607;42.066;24.742;2023-06-04T09:33:25;10.18;;;4.72;;
20894;SDS011;10607;42.066;24.742;2023-06-04T09:35:55;10.85;;;4.55;;
20894;SDS011;10607;42.066;24.742;2023-06-04T09:38:21;8.00;;;4.35;;
20894;SDS011;10607;42.066;24.742;2023-06-04T09:40:47;8.90;;;4.18;;
20894;SDS011;10607;42.066;24.742;2023-06-04T09:43:20;4.80;;;3.53;;
20894;SDS011;10607;42.066;24.742;2023-06-04T09:45:46;7.18;;;4.25;;
20894;SDS011;10607;42.066;24.742;2023-06-04T09:48:18;6.00;;;3.53;;
20894;SDS011;10607;42.066;24.742;2023-06-04T09:50:44;9.73;;;4.20;;
20894;SDS011;10607;42.066;24.742;2023-06-04T09:53:17;9.02;;;3.65;;
20894;SDS011;10607;42.066;24.742;2023-06-04T09:55:43;5.43;;;4.05;;
20894;SDS011;10607;42.066;24.742;2023-06-04T09:58:09;7.97;;;3.67;;
20894;SDS011;10607;42.066;24.742;2023-06-04T10:00:35;7.75;;;4.13;;
20894;SDS011;10607;42.066;24.742;2023-06-04T10:03:01;7.00;;;4.07;;
20894;SDS011;10607;42.066;24.742;2023-06-04T10:05:27;11.00;;;3.83;;
20894;SDS011;10607;42.066;24.742;2023-06-04T10:07:54;6.80;;;4.68;;
20894;SDS011;10607;42.066;24.742;2023-06-04T10:10:20;8.48;;;3.75;;
20894;SDS011;10607;42.066;24.742;2023-06-04T10:12:49;6.07;;;3.65;;
20894;SDS011;10607;42.066;24.742;2023-06-04T10:15:15;10.93;;;4.32;;
20894;SDS011;10607;42.066;24.742;2023-06-04T10:17:42;11.75;;;4.35;;
20894;SDS011;10607;42.066;24.742;2023-06-04T10:20:07;8.32;;;4.60;;
20894;SDS011;10607;42.066;24.742;2023-06-04T10:22:34;10.05;;;4.40;;
20894;SDS011;10607;42.066;24.742;2023-06-04T10:25:00;7.32;;;4.10;;
20894;SDS011;10607;42.066;24.742;2023-06-04T10:27:25;5.15;;;3.53;;
20894;SDS011;10607;42.066;24.742;2023-06-04T10:29:50;7.03;;;4.15;;
20894;SDS011;10607;42.066;24.742;2023-06-04T10:32:17;9.25;;;4.00;;
20894;SDS011;10607;42.066;24.742;2023-06-04T10:34:43;11.00;;;3.47;;
20894;SDS011;10607;42.066;24.742;2023-06-04T10:37:21;7.97;;;3.10;;
20894;SDS011;10607;42.066;24.742;2023-06-04T10:39:53;7.45;;;3.45;;
20894;SDS011;10607;42.066;24.742;2023-06-04T10:42:18;4.72;;;3.00;;
20894;SDS011;10607;42.066;24.742;2023-06-04T10:44:46;6.05;;;3.50;;
20894;SDS011;10607;42.066;24.742;2023-06-04T10:47:18;7.38;;;3.88;;
20894;SDS011;10607;42.066;24.742;2023-06-04T10:49:44;7.75;;;4.07;;
20894;SDS011;10607;42.066;24.742;2023-06-04T10:52:10;7.75;;;4.13;;
20894;SDS011;10607;42.066;24.742;2023-06-04T10:54:35;6.18;;;3.80;;
20894;SDS011;10607;42.066;24.742;2023-06-04T10:57:09;12.10;;;3.85;;
20894;SDS011;10607;42.066;24.742;2023-06-04T10:59:34;4.45;;;3.67;;
20894;SDS011;10607;42.066;24.742;2023-06-04T11:02:09;5.35;;;3.45;;
20894;SDS011;10607;42.066;24.742;2023-06-04T11:04:34;6.35;;;3.40;;
20894;SDS011;10607;42.066;24.742;2023-06-04T11:07:07;5.45;;;3.35;;
20894;SDS011;10607;42.066;24.742;2023-06-04T11:09:35;7.95;;;3.35;;
20894;SDS011;10607;42.066;24.742;2023-06-04T11:12:01;7.53;;;3.55;;
20894;SDS011;10607;42.066;24.742;2023-06-04T11:14:27;7.70;;;3.88;;
20894;SDS011;10607;42.066;24.742;2023-06-04T11:16:52;9.35;;;4.50;;
20894;SDS011;10607;42.066;24.742;2023-06-04T11:19:18;12.23;;;4.80;;
20894;SDS011;10607;42.066;24.742;2023-06-04T11:21:43;10.50;;;4.72;;
20894;SDS011;10607;42.066;24.742;2023-06-04T11:24:08;6.63;;;5.13;;
20894;SDS011;10607;42.066;24.742;2023-06-04T11:26:35;7.47;;;5.32;;
20894;SDS011;10607;42.066;24.742;2023-06-04T11:29:01;10.70;;;4.47;;
20894;SDS011;10607;42.066;24.742;2023-06-04T11:31:26;6.53;;;4.97;;
20894;SDS011;10607;42.066;24.742;2023-06-04T11:33:52;9.57;;;6.78;;
20894;SDS011;10607;42.066;24.742;2023-06-04T11:36:27;12.32;;;6.25;;
20894;SDS011;10607;42.066;24.742;2023-06-04T11:39:02;10.80;;;6.28;;
20894;SDS011;10607;42.066;24.742;2023-06-04T11:41:32;16.40;;;6.53;;
20894;SDS011;10607;42.066;24.742;2023-06-04T11:44:00;16.17;;;6.35;;
20894;SDS011;10607;42.066;24.742;2023-06-04T11:46:26;13.48;;;6.03;;
20894;SDS011;10607;42.066;24.742;2023-06-04T11:48:51;13.48;;;6.38;;
20894;SDS011;10607;42.066;24.742;2023-06-04T11:51:17;9.10;;;5.90;;
20894;SDS011;10607;42.066;24.742;2023-06-04T11:53:44;10.10;;;6.50;;
20894;SDS011;10607;42.066;24.742;2023-06-04T11:56:10;11.95;;;6.18;;
20894;SDS011;10607;42.066;24.742;2023-06-04T11:58:36;7.88;;;5.95;;
20894;SDS011;10607;42.066;24.742;2023-06-04T12:01:02;14.55;;;5.85;;
20894;SDS011;10607;42.066;24.742;2023-06-04T12:03:34;8.90;;;6.35;;
20894;SDS011;10607;42.066;24.742;2023-06-04T12:06:08;10.27;;;6.47;;
20894;SDS011;10607;42.066;24.742;2023-06-04T12:08:34;11.25;;;6.65;;
20894;SDS011;10607;42.066;24.742;2023-06-04T12:11:09;10.27;;;6.20;;
20894;SDS011;10607;42.066;24.742;2023-06-04T12:13:36;8.65;;;6.07;;
20894;SDS011;10607;42.066;24.742;2023-06-04T12:16:02;7.60;;;6.22;;
20894;SDS011;10607;42.066;24.742;2023-06-04T12:18:27;14.23;;;6.35;;
20894;SDS011;10607;42.066;24.742;2023-06-04T12:20:52;13.88;;;6.60;;
20894;SDS011;10607;42.066;24.742;2023-06-04T12:23:19;7.90;;;5.82;;
20894;SDS011;10607;42.066;24.742;2023-06-04T12:25:49;8.48;;;6.13;;
20894;SDS011;10607;42.066;24.742;2023-06-04T12:28:18;9.55;;;6.07;;
20894;SDS011;10607;42.066;24.742;2023-06-04T12:30:43;9.60;;;5.15;;
20894;SDS011;10607;42.066;24.742;2023-06-04T12:33:10;8.40;;;5.72;;
20894;SDS011;10607;42.066;24.742;2023-06-04T12:35:35;12.75;;;5.70;;
20894;SDS011;10607;42.066;24.742;2023-06-04T12:38:04;8.90;;;5.63;;
20894;SDS011;10607;42.066;24.742;2023-06-04T12:40:30;10.02;;;5.75;;
20894;SDS011;10607;42.066;24.742;2023-06-04T12:42:55;10.13;;;5.82;;
20894;SDS011;10607;42.066;24.742;2023-06-04T12:45:20;9.70;;;5.80;;
20894;SDS011;10607;42.066;24.742;2023-06-04T12:47:46;11.55;;;5.22;;
20894;SDS011;10607;42.066;24.742;2023-06-04T12:50:12;8.60;;;5.47;;
20894;SDS011;10607;42.066;24.742;2023-06-04T12:52:37;8.55;;;5.47;;
20894;SDS011;10607;42.066;24.742;2023-06-04T12:55:03;9.80;;;6.00;;
20894;SDS011;10607;42.066;24.742;2023-06-04T12:57:28;8.25;;;5.50;;
20894;SDS011;10607;42.066;24.742;2023-06-04T12:59:53;7.43;;;5.15;;
20894;SDS011;10607;42.066;24.742;2023-06-04T13:02:18;11.82;;;5.82;;
20894;SDS011;10607;42.066;24.742;2023-06-04T13:04:44;13.57;;;5.90;;
20894;SDS011;10607;42.066;24.742;2023-06-04T13:07:11;8.90;;;5.70;;
20894;SDS011;10607;42.066;24.742;2023-06-04T13:09:36;11.73;;;5.47;;
20894;SDS011;10607;42.066;24.742;2023-06-04T13:12:01;9.13;;;5.85;;
20894;SDS011;10607;42.066;24.742;2023-06-04T13:14:28;9.35;;;5.72;;
20894;SDS011;10607;42.066;24.742;2023-06-04T13:16:58;12.65;;;6.40;;
20894;SDS011;10607;42.066;24.742;2023-06-04T13:19:23;17.17;;;6.82;;
20894;SDS011;10607;42.066;24.742;2023-06-04T13:21:48;7.45;;;5.93;;
20894;SDS011;10607;42.066;24.742;2023-06-04T13:24:14;12.93;;;7.03;;
20894;SDS011;10607;42.066;24.742;2023-06-04T13:26:39;9.77;;;6.63;;
20894;SDS011;10607;42.066;24.742;2023-06-04T13:29:06;12.20;;;6.15;;
20894;SDS011;10607;42.066;24.742;2023-06-04T13:31:32;18.33;;;8.20;;
20894;SDS011;10607;42.066;24.742;2023-06-04T13:33:57;19.45;;;9.90;;
20894;SDS011;10607;42.066;24.742;2023-06-04T13:36:23;20.23;;;9.50;;
20894;SDS011;10607;42.066;24.742;2023-06-04T13:38:48;10.35;;;5.85;;
20894;SDS011;10607;42.066;24.742;2023-06-04T13:41:13;13.57;;;6.88;;
20894;SDS011;10607;42.066;24.742;2023-06-04T13:43:38;12.93;;;7.45;;
20894;SDS011;10607;42.066;24.742;2023-06-04T13:46:04;10.60;;;6.78;;
20894;SDS011;10607;42.066;24.742;2023-06-04T13:48:29;10.27;;;6.50;;
20894;SDS011;10607;42.066;24.742;2023-06-04T13:50:54;10.10;;;7.15;;
20894;SDS011;10607;42.066;24.742;2023-06-04T13:53:20;8.98;;;5.43;;
20894;SDS011;10607;42.066;24.742;2023-06-04T13:55:45;8.20;;;5.80;;
20894;SDS011;10607;42.066;24.742;2023-06-04T13:58:10;7.80;;;5.45;;
20894;SDS011;10607;42.066;24.742;2023-06-04T14:00:36;11.45;;;5.63;;
20894;SDS011;10607;42.066;24.742;2023-06-04T14:03:01;15.32;;;5.05;;
20894;SDS011;10607;42.066;24.742;2023-06-04T14:05:26;12.05;;;5.30;;
20894;SDS011;10607;42.066;24.742;2023-06-04T14:07:55;8.65;;;5.68;;
20894;SDS011;10607;42.066;24.742;2023-06-04T14:10:20;13.65;;;5.03;;
20894;SDS011;10607;42.066;24.742;2023-06-04T14:12:45;9.77;;;4.93;;
20894;SDS011;10607;42.066;24.742;2023-06-04T14:15:11;10.55;;;4.80;;
20894;SDS011;10607;42.066;24.742;2023-06-04T14:17:39;14.25;;;5.07;;
20894;SDS011;10607;42.066;24.742;2023-06-04T14:20:05;11.05;;;4.63;;
20894;SDS011;10607;42.066;24.742;2023-06-04T14:22:35;9.23;;;4.88;;